sensor_id;sensor_type;location;lat;lon;timestamp;P1;durP1;ratioP1;P2;durP2;ratioP2
24161;SDS011;12318;51.262;7.066;2022-12-01T00:00:36;647.30;;;78.63;;
24161;SDS011;12318;51.262;7.066;2022-12-01T00:03:02;827.45;;;82.65;;
24161;SDS011;12318;51.262;7.066;2022-12-01T00:05:28;388.58;;;53.20;;
24161;SDS011;12318;51.262;7.066;2022-12-01T00:07:53;585.13;;;70.50;;
24161;SDS011;12318;51.262;7.066;2022-12-01T00:10:21;458.00;;;60.55;;
24161;SDS011;12318;51.262;7.066;2022-12-01T00:12:51;394.27;;;58.83;;
24161;SDS011;12318;51.262;7.066;2022-12-01T00:15:21;251.98;;;55.83;;
24161;SDS011;12318;51.262;7.066;2022-12-01T00:17:49;246.45;;;55.80;;
24161;SDS011;12318;51.262;7.066;2022-12-01T00:20:16;674.75;;;70.22;;
24161;SDS011;12318;51.262;7.066;2022-12-01T00:22:46;286.88;;;54.10;;
24161;SDS011;12318;51.262;7.066;2022-12-01T00:25:13;380.20;;;53.15;;
24161;SDS011;12318;51.262;7.066;2022-12-01T00:27:41;661.90;;;70.85;;
24161;SDS011;12318;51.262;7.066;2022-12-01T00:30:09;328.42;;;49.65;;
24161;SDS011;12318;51.262;7.066;2022-12-01T00:32:36;260.30;;;52.72;;
24161;SDS011;12318;51.262;7.066;2022-12-01T00:35:03;302.38;;;51.88;;
24161;SDS011;12318;51.262;7.066;2022-12-01T00:37:30;159.70;;;47.20;;
24161;SDS011;12318;51.262;7.066;2022-12-01T00:39:57;505.70;;;59.95;;
24161;SDS011;12318;51.262;7.066;2022-12-01T00:42:23;506.50;;;54.42;;
24161;SDS011;12318;51.262;7.066;2022-12-01T00:44:49;464.13;;;58.92;;
24161;SDS011;12318;51.262;7.066;2022-12-01T00:47:15;280.42;;;51.17;;
24161;SDS011;12318;51.262;7.066;2022-12-01T00:49:42;313.13;;;51.10;;
24161;SDS011;12318;51.262;7.066;2022-12-01T00:52:09;144.80;;;41.90;;
24161;SDS011;12318;51.262;7.066;2022-12-01T00:54:36;370.73;;;58.10;;
24161;SDS011;12318;51.262;7.066;2022-12-01T00:57:01;171.98;;;50.08;;
24161;SDS011;12318;51.262;7.066;2022-12-01T00:59:29;239.98;;;48.95;;
24161;SDS011;12318;51.262;7.066;2022-12-01T01:01:55;246.35;;;53.20;;
24161;SDS011;12318;51.262;7.066;2022-12-01T01:04:21;298.45;;;57.10;;
24161;SDS011;12318;51.262;7.066;2022-12-01T01:06:47;449.95;;;64.85;;
24161;SDS011;12318;51.262;7.066;2022-12-01T01:09:13;301.08;;;56.80;;
24161;SDS011;12318;51.262;7.066;2022-12-01T01:11:40;227.35;;;45.97;;
24161;SDS011;12318;51.262;7.066;2022-12-01T01:14:06;939.95;;;95.20;;
24161;SDS011;12318;51.262;7.066;2022-12-01T01:16:32;249.18;;;55.88;;
24161;SDS011;12318;51.262;7.066;2022-12-01T01:18:59;280.77;;;54.08;;
24161;SDS011;12318;51.262;7.066;2022-12-01T01:21:25;189.30;;;51.80;;
24161;SDS011;12318;51.262;7.066;2022-12-01T01:23:51;199.80;;;55.17;;
24161;SDS011;12318;51.262;7.066;2022-12-01T01:26:26;327.73;;;58.95;;
24161;SDS011;12318;51.262;7.066;2022-12-01T01:28:59;200.20;;;51.25;;
24161;SDS011;12318;51.262;7.066;2022-12-01T01:31:27;244.63;;;60.60;;
24161;SDS011;12318;51.262;7.066;2022-12-01T01:33:54;323.48;;;63.72;;
24161;SDS011;12318;51.262;7.066;2022-12-01T01:36:21;487.75;;;69.53;;
24161;SDS011;12318;51.262;7.066;2022-12-01T01:38:48;347.45;;;62.40;;
24161;SDS011;12318;51.262;7.066;2022-12-01T01:41:17;353.58;;;68.25;;
24161;SDS011;12318;51.262;7.066;2022-12-01T01:43:45;566.28;;;71.78;;
24161;SDS011;12318;51.262;7.066;2022-12-01T01:46:18;384.83;;;61.25;;
24161;SDS011;12318;51.262;7.066;2022-12-01T01:48:53;395.90;;;59.60;;
24161;SDS011;12318;51.262;7.066;2022-12-01T01:51:33;476.92;;;74.07;;
24161;SDS011;12318;51.262;7.066;2022-12-01T01:54:27;549.67;;;75.18;;
24161;SDS011;12318;51.262;7.066;2022-12-01T01:57:00;386.73;;;71.22;;
24161;SDS011;12318;51.262;7.066;2022-12-01T01:59:32;654.67;;;80.50;;
24161;SDS011;12318;51.262;7.066;2022-12-01T02:02:05;573.08;;;72.22;;
24161;SDS011;12318;51.262;7.066;2022-12-01T02:04:36;364.85;;;57.13;;
24161;SDS011;12318;51.262;7.066;2022-12-01T02:07:06;407.23;;;68.22;;
24161;SDS011;12318;51.262;7.066;2022-12-01T02:09:38;411.05;;;67.55;;
24161;SDS011;12318;51.262;7.066;2022-12-01T02:17:36;503.63;;;70.75;;
24161;SDS011;12318;51.262;7.066;2022-12-01T02:23:23;376.15;;;56.20;;
24161;SDS011;12318;51.262;7.066;2022-12-01T02:35:06;593.28;;;78.93;;
24161;SDS011;12318;51.262;7.066;2022-12-01T02:37:47;624.15;;;73.75;;
24161;SDS011;12318;51.262;7.066;2022-12-01T02:40:24;494.15;;;72.72;;
24161;SDS011;12318;51.262;7.066;2022-12-01T02:42:53;583.72;;;70.35;;
24161;SDS011;12318;51.262;7.066;2022-12-01T02:47:59;326.02;;;56.30;;
24161;SDS011;12318;51.262;7.066;2022-12-01T02:50:27;505.90;;;75.90;;
24161;SDS011;12318;51.262;7.066;2022-12-01T02:52:57;189.77;;;53.08;;
24161;SDS011;12318;51.262;7.066;2022-12-01T02:55:25;292.55;;;62.35;;
24161;SDS011;12318;51.262;7.066;2022-12-01T02:57:51;197.75;;;55.95;;
24161;SDS011;12318;51.262;7.066;2022-12-01T03:00:17;414.65;;;67.05;;
24161;SDS011;12318;51.262;7.066;2022-12-01T03:16:15;251.45;;;62.78;;
24161;SDS011;12318;51.262;7.066;2022-12-01T03:18:59;293.58;;;64.00;;
24161;SDS011;12318;51.262;7.066;2022-12-01T03:22:13;502.88;;;71.68;;
24161;SDS011;12318;51.262;7.066;2022-12-01T03:24:46;447.50;;;60.08;;
24161;SDS011;12318;51.262;7.066;2022-12-01T03:27:13;486.80;;;68.30;;
24161;SDS011;12318;51.262;7.066;2022-12-01T03:29:45;315.17;;;65.03;;
24161;SDS011;12318;51.262;7.066;2022-12-01T03:37:38;320.92;;;59.00;;
24161;SDS011;12318;51.262;7.066;2022-12-01T03:40:11;190.50;;;58.42;;
24161;SDS011;12318;51.262;7.066;2022-12-01T03:45:18;238.43;;;68.28;;
24161;SDS011;12318;51.262;7.066;2022-12-01T03:47:52;225.30;;;66.70;;
24161;SDS011;12318;51.262;7.066;2022-12-01T03:50:20;178.00;;;58.65;;
24161;SDS011;12318;51.262;7.066;2022-12-01T03:53:10;175.00;;;58.00;;
24161;SDS011;12318;51.262;7.066;2022-12-01T03:55:49;224.55;;;67.90;;
24161;SDS011;12318;51.262;7.066;2022-12-01T04:01:18;165.82;;;59.60;;
24161;SDS011;12318;51.262;7.066;2022-12-01T04:03:46;164.88;;;61.15;;
24161;SDS011;12318;51.262;7.066;2022-12-01T04:06:12;185.13;;;65.13;;
24161;SDS011;12318;51.262;7.066;2022-12-01T04:08:38;213.90;;;67.32;;
24161;SDS011;12318;51.262;7.066;2022-12-01T04:11:04;239.95;;;71.55;;
24161;SDS011;12318;51.262;7.066;2022-12-01T04:13:50;187.30;;;64.30;;
24161;SDS011;12318;51.262;7.066;2022-12-01T04:16:16;201.93;;;66.07;;
24161;SDS011;12318;51.262;7.066;2022-12-01T04:18:42;292.40;;;76.93;;
24161;SDS011;12318;51.262;7.066;2022-12-01T04:21:08;211.85;;;60.78;;
24161;SDS011;12318;51.262;7.066;2022-12-01T04:23:33;202.00;;;64.07;;
24161;SDS011;12318;51.262;7.066;2022-12-01T04:26:18;300.23;;;70.32;;
24161;SDS011;12318;51.262;7.066;2022-12-01T04:28:44;242.43;;;66.95;;
24161;SDS011;12318;51.262;7.066;2022-12-01T04:31:09;321.92;;;73.55;;
24161;SDS011;12318;51.262;7.066;2022-12-01T04:33:35;130.35;;;49.70;;
24161;SDS011;12318;51.262;7.066;2022-12-01T04:36:01;162.63;;;53.22;;
24161;SDS011;12318;51.262;7.066;2022-12-01T04:38:32;214.55;;;60.88;;
24161;SDS011;12318;51.262;7.066;2022-12-01T04:41:01;179.07;;;55.92;;
24161;SDS011;12318;51.262;7.066;2022-12-01T04:43:36;136.75;;;49.45;;
24161;SDS011;12318;51.262;7.066;2022-12-01T04:46:02;169.02;;;52.97;;
24161;SDS011;12318;51.262;7.066;2022-12-01T04:48:29;132.75;;;46.10;;
24161;SDS011;12318;51.262;7.066;2022-12-01T04:50:55;157.68;;;49.88;;
24161;SDS011;12318;51.262;7.066;2022-12-01T04:53:21;154.15;;;49.80;;
24161;SDS011;12318;51.262;7.066;2022-12-01T04:55:47;152.38;;;48.17;;
24161;SDS011;12318;51.262;7.066;2022-12-01T04:58:13;171.57;;;50.50;;
24161;SDS011;12318;51.262;7.066;2022-12-01T05:00:38;181.23;;;53.53;;
24161;SDS011;12318;51.262;7.066;2022-12-01T05:03:04;149.40;;;48.08;;
24161;SDS011;12318;51.262;7.066;2022-12-01T05:05:30;272.25;;;55.38;;
24161;SDS011;12318;51.262;7.066;2022-12-01T05:07:59;224.40;;;46.25;;
24161;SDS011;12318;51.262;7.066;2022-12-01T05:10:25;551.30;;;56.88;;
24161;SDS011;12318;51.262;7.066;2022-12-01T05:12:51;663.72;;;60.92;;
24161;SDS011;12318;51.262;7.066;2022-12-01T05:15:17;330.25;;;50.63;;
24161;SDS011;12318;51.262;7.066;2022-12-01T05:17:43;599.17;;;55.88;;
24161;SDS011;12318;51.262;7.066;2022-12-01T05:20:20;274.52;;;42.22;;
24161;SDS011;12318;51.262;7.066;2022-12-01T05:23:06;244.45;;;45.97;;
24161;SDS011;12318;51.262;7.066;2022-12-01T05:25:32;555.17;;;56.30;;
24161;SDS011;12318;51.262;7.066;2022-12-01T05:27:58;294.67;;;49.35;;
24161;SDS011;12318;51.262;7.066;2022-12-01T05:30:26;713.83;;;71.78;;
24161;SDS011;12318;51.262;7.066;2022-12-01T05:32:52;576.70;;;53.15;;
24161;SDS011;12318;51.262;7.066;2022-12-01T05:35:18;426.48;;;52.83;;
24161;SDS011;12318;51.262;7.066;2022-12-01T05:37:46;423.17;;;55.28;;
24161;SDS011;12318;51.262;7.066;2022-12-01T05:40:12;395.92;;;56.42;;
24161;SDS011;12318;51.262;7.066;2022-12-01T05:42:37;507.30;;;64.75;;
24161;SDS011;12318;51.262;7.066;2022-12-01T05:45:03;345.77;;;57.45;;
24161;SDS011;12318;51.262;7.066;2022-12-01T05:47:29;283.88;;;57.35;;
24161;SDS011;12318;51.262;7.066;2022-12-01T05:49:55;306.60;;;58.63;;
24161;SDS011;12318;51.262;7.066;2022-12-01T05:52:21;256.00;;;55.42;;
24161;SDS011;12318;51.262;7.066;2022-12-01T05:54:47;212.40;;;51.95;;
24161;SDS011;12318;51.262;7.066;2022-12-01T05:57:12;241.27;;;52.92;;
24161;SDS011;12318;51.262;7.066;2022-12-01T05:59:38;215.25;;;49.30;;
24161;SDS011;12318;51.262;7.066;2022-12-01T06:02:04;217.88;;;51.00;;
24161;SDS011;12318;51.262;7.066;2022-12-01T06:04:30;208.40;;;48.45;;
24161;SDS011;12318;51.262;7.066;2022-12-01T06:06:55;222.77;;;52.38;;
24161;SDS011;12318;51.262;7.066;2022-12-01T06:09:21;159.65;;;42.90;;
24161;SDS011;12318;51.262;7.066;2022-12-01T06:11:47;193.05;;;51.92;;
24161;SDS011;12318;51.262;7.066;2022-12-01T06:14:13;167.45;;;46.45;;
24161;SDS011;12318;51.262;7.066;2022-12-01T06:16:39;204.93;;;50.95;;
24161;SDS011;12318;51.262;7.066;2022-12-01T06:19:06;211.73;;;53.30;;
24161;SDS011;12318;51.262;7.066;2022-12-01T06:21:31;206.65;;;48.67;;
24161;SDS011;12318;51.262;7.066;2022-12-01T06:23:57;277.60;;;53.95;;
24161;SDS011;12318;51.262;7.066;2022-12-01T06:26:23;144.90;;;45.10;;
24161;SDS011;12318;51.262;7.066;2022-12-01T06:28:49;268.77;;;49.92;;
24161;SDS011;12318;51.262;7.066;2022-12-01T06:31:14;275.92;;;50.97;;
24161;SDS011;12318;51.262;7.066;2022-12-01T06:33:40;194.02;;;43.92;;
24161;SDS011;12318;51.262;7.066;2022-12-01T06:36:06;173.93;;;48.45;;
24161;SDS011;12318;51.262;7.066;2022-12-01T06:38:33;331.38;;;52.00;;
24161;SDS011;12318;51.262;7.066;2022-12-01T06:41:01;190.13;;;40.53;;
24161;SDS011;12318;51.262;7.066;2022-12-01T06:43:27;534.38;;;58.28;;
24161;SDS011;12318;51.262;7.066;2022-12-01T06:45:53;586.45;;;62.20;;
24161;SDS011;12318;51.262;7.066;2022-12-01T06:48:19;472.80;;;59.90;;
24161;SDS011;12318;51.262;7.066;2022-12-01T06:50:45;520.22;;;61.25;;
24161;SDS011;12318;51.262;7.066;2022-12-01T06:53:11;278.10;;;46.63;;
24161;SDS011;12318;51.262;7.066;2022-12-01T06:55:37;843.10;;;76.07;;
24161;SDS011;12318;51.262;7.066;2022-12-01T06:58:03;419.48;;;50.05;;
24161;SDS011;12318;51.262;7.066;2022-12-01T07:00:29;475.70;;;58.08;;
24161;SDS011;12318;51.262;7.066;2022-12-01T07:02:55;184.20;;;42.85;;
24161;SDS011;12318;51.262;7.066;2022-12-01T07:05:21;421.45;;;52.45;;
24161;SDS011;12318;51.262;7.066;2022-12-01T07:07:47;536.05;;;59.35;;
24161;SDS011;12318;51.262;7.066;2022-12-01T07:10:13;313.90;;;50.05;;
24161;SDS011;12318;51.262;7.066;2022-12-01T07:12:42;224.27;;;44.65;;
24161;SDS011;12318;51.262;7.066;2022-12-01T07:15:08;215.90;;;49.47;;
24161;SDS011;12318;51.262;7.066;2022-12-01T07:17:39;141.38;;;43.78;;
24161;SDS011;12318;51.262;7.066;2022-12-01T07:20:05;172.88;;;48.17;;
24161;SDS011;12318;51.262;7.066;2022-12-01T07:22:34;134.07;;;43.25;;
24161;SDS011;12318;51.262;7.066;2022-12-01T07:25:11;108.78;;;38.92;;
24161;SDS011;12318;51.262;7.066;2022-12-01T07:27:37;88.82;;;36.40;;
24161;SDS011;12318;51.262;7.066;2022-12-01T07:30:07;127.55;;;43.03;;
24161;SDS011;12318;51.262;7.066;2022-12-01T07:32:36;148.18;;;44.42;;
24161;SDS011;12318;51.262;7.066;2022-12-01T07:35:02;133.90;;;43.22;;
24161;SDS011;12318;51.262;7.066;2022-12-01T07:37:28;100.82;;;38.25;;
24161;SDS011;12318;51.262;7.066;2022-12-01T07:39:53;82.20;;;34.50;;
24161;SDS011;12318;51.262;7.066;2022-12-01T07:42:27;107.57;;;39.03;;
24161;SDS011;12318;51.262;7.066;2022-12-01T07:47:44;166.40;;;47.22;;
24161;SDS011;12318;51.262;7.066;2022-12-01T07:50:12;132.00;;;44.15;;
24161;SDS011;12318;51.262;7.066;2022-12-01T07:52:43;121.75;;;41.90;;
24161;SDS011;12318;51.262;7.066;2022-12-01T07:55:16;121.93;;;40.85;;
24161;SDS011;12318;51.262;7.066;2022-12-01T07:57:49;113.95;;;39.20;;
24161;SDS011;12318;51.262;7.066;2022-12-01T08:00:18;78.68;;;32.90;;
24161;SDS011;12318;51.262;7.066;2022-12-01T08:02:55;65.63;;;31.60;;
24161;SDS011;12318;51.262;7.066;2022-12-01T08:05:25;93.43;;;36.42;;
24161;SDS011;12318;51.262;7.066;2022-12-01T08:08:02;85.20;;;32.25;;
24161;SDS011;12318;51.262;7.066;2022-12-01T08:10:30;94.63;;;34.58;;
24161;SDS011;12318;51.262;7.066;2022-12-01T08:13:05;96.85;;;34.85;;
24161;SDS011;12318;51.262;7.066;2022-12-01T08:15:34;115.10;;;37.97;;
24161;SDS011;12318;51.262;7.066;2022-12-01T08:18:24;77.55;;;31.30;;
24161;SDS011;12318;51.262;7.066;2022-12-01T08:21:02;87.80;;;33.40;;
24161;SDS011;12318;51.262;7.066;2022-12-01T08:23:35;83.18;;;32.50;;
24161;SDS011;12318;51.262;7.066;2022-12-01T08:26:08;86.00;;;32.20;;
24161;SDS011;12318;51.262;7.066;2022-12-01T08:28:49;89.97;;;33.25;;
24161;SDS011;12318;51.262;7.066;2022-12-01T08:31:30;93.07;;;33.10;;
24161;SDS011;12318;51.262;7.066;2022-12-01T08:34:13;91.28;;;33.75;;
24161;SDS011;12318;51.262;7.066;2022-12-01T08:36:49;101.05;;;33.60;;
24161;SDS011;12318;51.262;7.066;2022-12-01T08:39:35;100.65;;;35.55;;
24161;SDS011;12318;51.262;7.066;2022-12-01T08:42:01;106.35;;;37.22;;
24161;SDS011;12318;51.262;7.066;2022-12-01T08:44:29;94.75;;;34.58;;
24161;SDS011;12318;51.262;7.066;2022-12-01T08:47:03;115.55;;;38.97;;
24161;SDS011;12318;51.262;7.066;2022-12-01T08:49:29;101.00;;;36.35;;
24161;SDS011;12318;51.262;7.066;2022-12-01T08:51:57;141.38;;;42.03;;
24161;SDS011;12318;51.262;7.066;2022-12-01T08:54:23;88.38;;;34.72;;
24161;SDS011;12318;51.262;7.066;2022-12-01T08:56:48;97.25;;;37.67;;
24161;SDS011;12318;51.262;7.066;2022-12-01T08:59:14;94.50;;;36.42;;
24161;SDS011;12318;51.262;7.066;2022-12-01T09:01:43;106.43;;;40.55;;
24161;SDS011;12318;51.262;7.066;2022-12-01T09:04:18;115.10;;;39.55;;
24161;SDS011;12318;51.262;7.066;2022-12-01T09:06:46;124.85;;;42.65;;
24161;SDS011;12318;51.262;7.066;2022-12-01T09:09:15;84.43;;;35.30;;
24161;SDS011;12318;51.262;7.066;2022-12-01T09:11:45;93.88;;;37.60;;
24161;SDS011;12318;51.262;7.066;2022-12-01T09:14:15;103.80;;;40.28;;
24161;SDS011;12318;51.262;7.066;2022-12-01T09:16:57;71.30;;;32.60;;
24161;SDS011;12318;51.262;7.066;2022-12-01T09:19:32;93.72;;;40.58;;
24161;SDS011;12318;51.262;7.066;2022-12-01T09:22:12;79.70;;;35.65;;
24161;SDS011;12318;51.262;7.066;2022-12-01T09:24:58;87.18;;;36.42;;
24161;SDS011;12318;51.262;7.066;2022-12-01T09:27:28;68.10;;;31.77;;
24161;SDS011;12318;51.262;7.066;2022-12-01T09:29:59;86.90;;;36.30;;
24161;SDS011;12318;51.262;7.066;2022-12-01T09:32:29;66.28;;;31.85;;
24161;SDS011;12318;51.262;7.066;2022-12-01T09:35:49;63.85;;;32.08;;
24161;SDS011;12318;51.262;7.066;2022-12-01T09:38:24;67.00;;;33.88;;
24161;SDS011;12318;51.262;7.066;2022-12-01T09:40:52;89.97;;;42.42;;
24161;SDS011;12318;51.262;7.066;2022-12-01T09:44:09;87.80;;;37.80;;
24161;SDS011;12318;51.262;7.066;2022-12-01T09:53:05;94.60;;;44.70;;
24161;SDS011;12318;51.262;7.066;2022-12-01T09:55:40;78.05;;;38.47;;
24161;SDS011;12318;51.262;7.066;2022-12-01T09:58:17;82.78;;;36.28;;
24161;SDS011;12318;51.262;7.066;2022-12-01T10:00:49;102.53;;;44.83;;
24161;SDS011;12318;51.262;7.066;2022-12-01T10:08:28;156.40;;;50.83;;
24161;SDS011;12318;51.262;7.066;2022-12-01T10:11:12;143.90;;;45.20;;
24161;SDS011;12318;51.262;7.066;2022-12-01T10:13:52;120.50;;;40.92;;
24161;SDS011;12318;51.262;7.066;2022-12-01T10:16:21;82.53;;;36.28;;
24161;SDS011;12318;51.262;7.066;2022-12-01T10:19:10;132.95;;;50.40;;
24161;SDS011;12318;51.262;7.066;2022-12-01T10:25:05;81.38;;;37.22;;
24161;SDS011;12318;51.262;7.066;2022-12-01T10:35:23;67.70;;;31.15;;
24161;SDS011;12318;51.262;7.066;2022-12-01T10:38:03;57.55;;;29.20;;
24161;SDS011;12318;51.262;7.066;2022-12-01T10:40:36;74.82;;;32.78;;
24161;SDS011;12318;51.262;7.066;2022-12-01T10:43:02;68.60;;;34.47;;
24161;SDS011;12318;51.262;7.066;2022-12-01T10:45:29;79.07;;;34.30;;
24161;SDS011;12318;51.262;7.066;2022-12-01T10:48:06;66.90;;;34.67;;
24161;SDS011;12318;51.262;7.066;2022-12-01T10:50:35;74.68;;;35.13;;
24161;SDS011;12318;51.262;7.066;2022-12-01T10:55:55;63.22;;;32.22;;
24161;SDS011;12318;51.262;7.066;2022-12-01T10:58:51;76.22;;;36.95;;
24161;SDS011;12318;51.262;7.066;2022-12-01T11:01:32;84.65;;;39.22;;
24161;SDS011;12318;51.262;7.066;2022-12-01T11:07:25;61.40;;;32.70;;
24161;SDS011;12318;51.262;7.066;2022-12-01T11:10:12;55.88;;;30.25;;
24161;SDS011;12318;51.262;7.066;2022-12-01T11:12:42;61.42;;;34.63;;
24161;SDS011;12318;51.262;7.066;2022-12-01T11:15:21;64.70;;;32.42;;
24161;SDS011;12318;51.262;7.066;2022-12-01T11:17:56;58.25;;;30.50;;
24161;SDS011;12318;51.262;7.066;2022-12-01T11:20:39;60.80;;;33.05;;
24161;SDS011;12318;51.262;7.066;2022-12-01T11:25:34;58.90;;;32.72;;
24161;SDS011;12318;51.262;7.066;2022-12-01T11:28:02;53.03;;;30.65;;
24161;SDS011;12318;51.262;7.066;2022-12-01T11:30:31;60.60;;;31.88;;
24161;SDS011;12318;51.262;7.066;2022-12-01T11:32:58;59.42;;;31.88;;
24161;SDS011;12318;51.262;7.066;2022-12-01T11:35:31;70.68;;;38.08;;
24161;SDS011;12318;51.262;7.066;2022-12-01T11:38:05;60.58;;;32.95;;
24161;SDS011;12318;51.262;7.066;2022-12-01T11:40:32;70.53;;;35.53;;
24161;SDS011;12318;51.262;7.066;2022-12-01T11:43:17;61.28;;;35.03;;
24161;SDS011;12318;51.262;7.066;2022-12-01T11:45:53;68.40;;;37.97;;
24161;SDS011;12318;51.262;7.066;2022-12-01T11:48:25;58.78;;;33.50;;
24161;SDS011;12318;51.262;7.066;2022-12-01T11:53:31;69.80;;;37.55;;
24161;SDS011;12318;51.262;7.066;2022-12-01T11:58:48;74.07;;;38.00;;
24161;SDS011;12318;51.262;7.066;2022-12-01T12:01:32;80.57;;;39.22;;
24161;SDS011;12318;51.262;7.066;2022-12-01T12:39:53;100.88;;;49.90;;
24161;SDS011;12318;51.262;7.066;2022-12-01T12:50:56;114.68;;;59.97;;
24161;SDS011;12318;51.262;7.066;2022-12-01T12:53:47;112.53;;;56.22;;
24161;SDS011;12318;51.262;7.066;2022-12-01T12:56:19;100.85;;;50.65;;
24161;SDS011;12318;51.262;7.066;2022-12-01T13:01:31;94.40;;;49.13;;
24161;SDS011;12318;51.262;7.066;2022-12-01T13:04:05;108.22;;;53.00;;
24161;SDS011;12318;51.262;7.066;2022-12-01T13:07:02;96.85;;;48.88;;
24161;SDS011;12318;51.262;7.066;2022-12-01T13:09:43;129.18;;;67.40;;
24161;SDS011;12318;51.262;7.066;2022-12-01T13:15:46;100.53;;;51.95;;
24161;SDS011;12318;51.262;7.066;2022-12-01T13:21:13;91.13;;;49.20;;
24161;SDS011;12318;51.262;7.066;2022-12-01T13:23:53;86.75;;;46.67;;
24161;SDS011;12318;51.262;7.066;2022-12-01T13:26:21;109.13;;;53.67;;
24161;SDS011;12318;51.262;7.066;2022-12-01T13:28:54;97.35;;;51.50;;
24161;SDS011;12318;51.262;7.066;2022-12-01T13:31:22;106.28;;;53.55;;
24161;SDS011;12318;51.262;7.066;2022-12-01T13:33:58;87.63;;;46.45;;
24161;SDS011;12318;51.262;7.066;2022-12-01T13:36:32;118.30;;;64.07;;
24161;SDS011;12318;51.262;7.066;2022-12-01T13:39:24;90.85;;;48.70;;
24161;SDS011;12318;51.262;7.066;2022-12-01T13:41:56;95.65;;;49.70;;
24161;SDS011;12318;51.262;7.066;2022-12-01T13:44:57;99.40;;;51.63;;
24161;SDS011;12318;51.262;7.066;2022-12-01T13:58:44;97.35;;;51.45;;
24161;SDS011;12318;51.262;7.066;2022-12-01T14:06:46;97.25;;;50.65;;
24161;SDS011;12318;51.262;7.066;2022-12-01T14:09:38;87.78;;;48.67;;
24161;SDS011;12318;51.262;7.066;2022-12-01T14:12:18;96.75;;;51.53;;
24161;SDS011;12318;51.262;7.066;2022-12-01T14:15:00;95.18;;;50.83;;
24161;SDS011;12318;51.262;7.066;2022-12-01T14:17:46;88.05;;;50.47;;
24161;SDS011;12318;51.262;7.066;2022-12-01T14:23:59;94.90;;;52.38;;
24161;SDS011;12318;51.262;7.066;2022-12-01T14:26:42;91.75;;;49.25;;
24161;SDS011;12318;51.262;7.066;2022-12-01T14:41:29;97.45;;;52.30;;
24161;SDS011;12318;51.262;7.066;2022-12-01T14:44:05;89.60;;;47.70;;
24161;SDS011;12318;51.262;7.066;2022-12-01T14:46:44;90.40;;;50.05;;
24161;SDS011;12318;51.262;7.066;2022-12-01T14:49:21;95.63;;;52.22;;
24161;SDS011;12318;51.262;7.066;2022-12-01T14:51:59;95.20;;;50.77;;
24161;SDS011;12318;51.262;7.066;2022-12-01T14:54:32;95.90;;;50.17;;
24161;SDS011;12318;51.262;7.066;2022-12-01T14:57:06;91.93;;;49.60;;
24161;SDS011;12318;51.262;7.066;2022-12-01T14:59:33;89.70;;;50.05;;
24161;SDS011;12318;51.262;7.066;2022-12-01T15:02:02;85.85;;;47.80;;
24161;SDS011;12318;51.262;7.066;2022-12-01T15:05:18;97.88;;;50.58;;
24161;SDS011;12318;51.262;7.066;2022-12-01T15:07:37;96.45;;;52.45;;
24161;SDS011;12318;51.262;7.066;2022-12-01T15:10:05;95.55;;;50.65;;
24161;SDS011;12318;51.262;7.066;2022-12-01T15:12:53;94.15;;;50.22;;
24161;SDS011;12318;51.262;7.066;2022-12-01T15:15:23;93.97;;;51.50;;
24161;SDS011;12318;51.262;7.066;2022-12-01T15:17:51;72.15;;;39.78;;
24161;SDS011;12318;51.262;7.066;2022-12-01T15:20:29;95.00;;;51.20;;
24161;SDS011;12318;51.262;7.066;2022-12-01T15:22:58;92.50;;;50.25;;
24161;SDS011;12318;51.262;7.066;2022-12-01T15:25:30;92.60;;;50.65;;
24161;SDS011;12318;51.262;7.066;2022-12-01T15:30:39;93.93;;;50.90;;
24161;SDS011;12318;51.262;7.066;2022-12-01T15:33:06;94.15;;;50.67;;
24161;SDS011;12318;51.262;7.066;2022-12-01T15:35:42;92.90;;;50.63;;
24161;SDS011;12318;51.262;7.066;2022-12-01T15:38:14;92.35;;;51.22;;
24161;SDS011;12318;51.262;7.066;2022-12-01T15:40:43;89.70;;;51.35;;
24161;SDS011;12318;51.262;7.066;2022-12-01T15:43:20;87.68;;;50.90;;
24161;SDS011;12318;51.262;7.066;2022-12-01T15:48:26;100.63;;;53.28;;
24161;SDS011;12318;51.262;7.066;2022-12-01T15:53:49;98.50;;;53.10;;
24161;SDS011;12318;51.262;7.066;2022-12-01T15:56:26;91.63;;;52.47;;
24161;SDS011;12318;51.262;7.066;2022-12-01T15:58:55;98.65;;;56.83;;
24161;SDS011;12318;51.262;7.066;2022-12-01T16:01:33;101.47;;;53.40;;
24161;SDS011;12318;51.262;7.066;2022-12-01T16:04:01;97.15;;;53.72;;
24161;SDS011;12318;51.262;7.066;2022-12-01T16:06:38;102.07;;;54.28;;
24161;SDS011;12318;51.262;7.066;2022-12-01T16:09:06;100.43;;;54.72;;
24161;SDS011;12318;51.262;7.066;2022-12-01T16:14:30;98.53;;;55.78;;
24161;SDS011;12318;51.262;7.066;2022-12-01T16:16:57;97.28;;;53.67;;
24161;SDS011;12318;51.262;7.066;2022-12-01T16:19:25;102.40;;;55.42;;
24161;SDS011;12318;51.262;7.066;2022-12-01T16:21:57;96.05;;;52.58;;
24161;SDS011;12318;51.262;7.066;2022-12-01T16:24:45;100.10;;;54.08;;
24161;SDS011;12318;51.262;7.066;2022-12-01T16:27:19;97.00;;;52.17;;
24161;SDS011;12318;51.262;7.066;2022-12-01T16:29:51;98.65;;;53.58;;
24161;SDS011;12318;51.262;7.066;2022-12-01T16:32:22;89.75;;;51.50;;
24161;SDS011;12318;51.262;7.066;2022-12-01T16:34:59;91.38;;;51.90;;
24161;SDS011;12318;51.262;7.066;2022-12-01T16:37:25;80.00;;;46.75;;
24161;SDS011;12318;51.262;7.066;2022-12-01T16:39:51;86.80;;;49.38;;
24161;SDS011;12318;51.262;7.066;2022-12-01T16:42:18;84.47;;;47.95;;
24161;SDS011;12318;51.262;7.066;2022-12-01T16:44:47;86.60;;;49.30;;
24161;SDS011;12318;51.262;7.066;2022-12-01T16:47:16;77.40;;;45.53;;
24161;SDS011;12318;51.262;7.066;2022-12-01T16:49:46;86.72;;;48.72;;
24161;SDS011;12318;51.262;7.066;2022-12-01T16:52:13;87.13;;;47.65;;
24161;SDS011;12318;51.262;7.066;2022-12-01T16:54:39;86.25;;;48.83;;
24161;SDS011;12318;51.262;7.066;2022-12-01T16:57:05;88.55;;;49.65;;
24161;SDS011;12318;51.262;7.066;2022-12-01T16:59:31;91.90;;;51.17;;
24161;SDS011;12318;51.262;7.066;2022-12-01T17:01:58;91.80;;;52.30;;
24161;SDS011;12318;51.262;7.066;2022-12-01T17:04:24;94.82;;;53.35;;
24161;SDS011;12318;51.262;7.066;2022-12-01T17:06:50;98.53;;;53.58;;
24161;SDS011;12318;51.262;7.066;2022-12-01T17:09:16;90.45;;;51.60;;
24161;SDS011;12318;51.262;7.066;2022-12-01T17:11:42;100.32;;;53.10;;
24161;SDS011;12318;51.262;7.066;2022-12-01T17:14:07;94.70;;;52.10;;
24161;SDS011;12318;51.262;7.066;2022-12-01T17:16:33;93.18;;;52.35;;
24161;SDS011;12318;51.262;7.066;2022-12-01T17:18:59;95.45;;;53.10;;
24161;SDS011;12318;51.262;7.066;2022-12-01T17:21:25;95.63;;;52.08;;
24161;SDS011;12318;51.262;7.066;2022-12-01T17:23:51;98.03;;;53.70;;
24161;SDS011;12318;51.262;7.066;2022-12-01T17:26:17;102.43;;;55.00;;
24161;SDS011;12318;51.262;7.066;2022-12-01T17:28:44;99.40;;;53.40;;
24161;SDS011;12318;51.262;7.066;2022-12-01T17:31:10;95.35;;;52.60;;
24161;SDS011;12318;51.262;7.066;2022-12-01T17:33:36;116.85;;;58.45;;
24161;SDS011;12318;51.262;7.066;2022-12-01T17:36:06;105.20;;;56.28;;
24161;SDS011;12318;51.262;7.066;2022-12-01T17:38:35;109.20;;;56.03;;